Flight Track Log - Related Links

Times and Time Zones

All times are in EDT time to prevent confusion due to time zone crossing. See the N490ER flight status page for this flight to view local times or setup timezone preferences in your user account.

Time Position Orientation Groundspeed Altitude Reporting Facility
EDT Latitude Longitude Course Direction KTS MPH feet Rate Location/Type
Thu 02:40:49 PM 29.2175 -81.0272 19° North 93 107 1,600  Level Jacksonville Center
Thu 02:41:50 PM 29.2422 -81.0172 19° North 89 102 2,300 703 Climbing Jacksonville Center
Thu 02:42:57 PM 29.2656 -81.0264 341° North 88 101 3,100 609 Climbing Jacksonville Center
Thu 02:43:58 PM 29.2886 -81.0378 337° Northwest 86 99 3,600 188 Climbing Jacksonville Center
Thu 02:45:05 PM 29.3158 -81.0517 336° Northwest 104 120 3,500 -47 Descending Jacksonville Center
Thu 02:46:07 PM 29.3453 -81.0653 338° Northwest 106 122 3,500  Level Jacksonville Center
Thu 02:47:07 PM 29.3725 -81.0767 340° North 105 121 3,500 298 Level Jacksonville Center
Thu 02:48:08 PM 29.3978 -81.0858 342° North 96 110 4,100 541 Climbing Jacksonville Center
Thu 02:49:09 PM 29.4231 -81.0997 334° Northwest 95 109 4,600 197 Climbing Jacksonville Center
Thu 02:50:10 PM 29.4483 -81.1133 335° Northwest 107 123 4,500 -52 Descending Jacksonville Center
Thu 02:51:05 PM 29.4756 -81.1272 336° Northwest 111 128 4,500  Level Jacksonville Center
Thu 02:52:12 PM 29.5050 -81.1433 335° Northwest 106 122 4,500 47 Level Jacksonville Center
Thu 02:53:13 PM 29.5303 -81.1597 331° Northwest 105 121 4,600  Climbing Jacksonville Center
Thu 02:54:14 PM 29.5536 -81.1808 322° Northwest 109 125 4,500 -52 Descending Jacksonville Center
Thu 02:55:09 PM 29.5769 -81.2019 322° Northwest 113 130 4,500  Level Jacksonville Center
Thu 02:56:09 PM 29.5958 -81.2303 307° West 112 129 4,500 50 Level Jacksonville Center
Thu 02:57:10 PM 29.6214 -81.2536 322° Northwest 109 125 4,600  Climbing Jacksonville Center
Thu 02:58:05 PM 29.6425 -81.2700 326° Northwest 107 123 4,500 -113 Descending Jacksonville Center
Thu 02:58:56 PM 29.6614 -81.2911 316° Northwest 110 127 4,400 -48 Descending Jacksonville Center
Thu 03:00:10 PM 29.6911 -81.3219 318° Northwest 112 129 4,400 -93 Level Jacksonville Center
Thu 03:01:05 PM 29.7122 -81.3406 323° Northwest 111 128 4,200 -362 Descending Jacksonville Center
Thu 03:02:06 PM 29.7375 -81.3689 316° Northwest 121 139 3,700 -537 Descending Jacksonville Center
Thu 03:03:08 PM 29.7631 -81.3947 319° Northwest 117 135 3,100 -439 Descending Jacksonville Center
Thu 03:04:09 PM 29.7861 -81.4161 321° Northwest 112 129 2,800 -375 Descending Jacksonville Center
Thu 03:05:16 PM 29.8136 -81.4444 318° Northwest 116 133 2,300 -197 Descending Jacksonville Center
Thu 03:06:11 PM 29.8347 -81.4656 319° Northwest 111 128 2,400 49 Climbing Jacksonville Center
Thu 03:07:18 PM 29.8581 -81.4939 314° West 114 131 2,400 -49 Level Jacksonville Center
Thu 03:08:13 PM 29.8792 -81.5153 319° Northwest 112 129 2,300 52 Descending Jacksonville Center
Thu 03:09:14 PM 29.9022 -81.5414 316° Northwest 107 123 2,500 47 Climbing Jacksonville Center
Thu 03:10:21 PM 29.9278 -81.5697 316° Northwest 106 122 2,400 -47 Descending Jacksonville Center
Thu 03:11:23 PM 29.9467 -81.5933 313° West 109 125 2,400 47 Level Jacksonville Center
Thu 03:12:30 PM 29.9719 -81.6194 318° Northwest 106 122 2,500 49 Climbing Jacksonville Center
Thu 03:13:25 PM 29.9953 -81.6383 325° Northwest 109 125 2,500  Level Jacksonville Center
Thu 03:14:26 PM 30.0183 -81.6644 316° Northwest 109 125 2,500  Level Jacksonville Center
Thu 03:15:27 PM 30.0375 -81.6881 313° West 109 125 2,500  Level Jacksonville Center
Thu 03:16:28 PM 30.0628 -81.7117 321° Northwest 106 122 2,500 -98 Level Jacksonville Center
Thu 03:17:29 PM 30.0881 -81.7331 324° Northwest 118 136 2,300 -98 Descending Jacksonville Center
Thu 03:18:30 PM 30.1111 -81.7617 313° West 116 133 2,300 -98 Level Jacksonville Center
Thu 03:19:32 PM 30.1386 -81.7806 329° Northwest 117 135 2,100 -537 Descending Jacksonville Center
Thu 03:20:33 PM 30.1617 -81.8067 316° Northwest 113 130 1,200 -545 Descending Jacksonville Center
Thu 03:21:33 PM 30.1850 -81.8353 313° West 113 130 1,000 -148 Descending Jacksonville Center
Thu 03:22:35 PM 30.2100 -81.8469 338° Northwest 112 129 900 -98 Descending Jacksonville Center
Thu 03:23:35 PM 30.2392 -81.8492 356° North 101 116 800 -198 Descending Jacksonville Center
Thu 03:24:36 PM 30.2519 -81.8658 312° West 82 94 500 -295 Descending Jacksonville Center
Thu 03:26:00 PM 30.2167 -81.8667 319° Northwest  Level FlightAware Approximate
Thu 03:33:00 PM 30.2188 -81.8772 319° Northwest  Level Estimated
Thu 03:34:00 PM 30.2188 -81.8772 319° Northwest  Level Estimated

Login

Don't have an account? Register now (free) for customized features, flight alerts, and more!